createdAt,value
2023-04-24T00:01:53.252Z,99139.87
2023-04-24T00:04:21.083Z,99143.31
2023-04-24T00:06:54.878Z,99143.06
2023-04-24T00:09:22.566Z,99148.53
2023-04-24T00:11:49.925Z,99138.03
2023-04-24T00:14:17.421Z,99146.13
2023-04-24T00:16:45.133Z,99141.22
2023-04-24T00:19:13.745Z,99137.88
2023-04-24T00:21:42.617Z,99138.28
2023-04-24T00:24:10.410Z,99132.66
2023-04-24T00:26:38.041Z,99138.72
2023-04-24T00:29:05.728Z,99142.97
2023-04-24T00:31:35.882Z,99140.13
2023-04-24T00:34:04.206Z,99127.41
2023-04-24T00:36:31.980Z,99132.75
2023-04-24T00:38:59.846Z,99116.41
2023-04-24T00:41:27.657Z,99113.78
2023-04-24T00:43:55.070Z,99117.37
2023-04-24T00:46:23.024Z,99112.97
2023-04-24T00:48:51.292Z,99105.34
2023-04-24T00:51:18.987Z,99108.63
2023-04-24T00:53:46.753Z,99106.84
2023-04-24T00:56:14.379Z,99106.63
2023-04-24T00:58:42.750Z,99112.13
2023-04-24T01:01:12.579Z,99106.75
2023-04-24T01:03:41.665Z,99096.22
2023-04-24T01:06:10.559Z,99094.50
2023-04-24T01:08:39.174Z,99102.22
2023-04-24T01:11:06.906Z,99107.31
2023-04-24T01:13:34.923Z,99100.25
2023-04-24T01:16:04.224Z,99086.19
2023-04-24T01:18:33.259Z,99091.44
2023-04-24T01:21:05.092Z,99086.06
2023-04-24T01:23:32.933Z,99074.81
2023-04-24T01:26:00.972Z,99075.59
2023-04-24T01:28:28.482Z,99069.78
2023-04-24T01:30:56.946Z,99063.31
2023-04-24T01:33:24.410Z,99061.38
2023-04-24T01:35:52.162Z,99061.00
2023-04-24T01:38:19.903Z,99057.38
2023-04-24T01:40:47.524Z,99059.28
2023-04-24T01:43:15.429Z,99056.19
2023-04-24T01:45:43.208Z,99046.84
2023-04-24T01:48:10.877Z,99052.91
2023-04-24T01:50:38.258Z,99052.19
2023-04-24T01:53:06.441Z,99051.25
2023-04-24T01:55:34.403Z,99045.03
2023-04-24T01:58:03.175Z,99031.28
2023-04-24T02:00:31.188Z,99037.66
2023-04-24T02:02:59.076Z,99022.56
2023-04-24T02:05:27.178Z,99031.00
2023-04-24T02:07:54.842Z,99030.16
2023-04-24T02:10:22.916Z,99024.97
2023-04-24T02:12:50.628Z,99021.09
2023-04-24T02:15:18.895Z,99021.53
2023-04-24T02:17:46.376Z,99023.31
2023-04-24T02:20:14.594Z,99022.25
2023-04-24T02:22:42.096Z,99020.88
2023-04-24T02:25:09.839Z,99019.75
2023-04-24T02:27:37.560Z,99031.63
2023-04-24T02:30:08.459Z,99022.69
2023-04-24T02:32:35.887Z,99015.91
2023-04-24T02:35:03.747Z,99008.41
2023-04-24T02:37:31.446Z,99006.97
2023-04-24T02:39:58.831Z,99008.69
2023-04-24T02:42:26.743Z,99009.22
2023-04-24T02:44:54.251Z,99011.81
2023-04-24T02:47:21.747Z,99012.34
2023-04-24T02:49:50.717Z,99018.72
2023-04-24T02:52:18.235Z,99009.50
2023-04-24T02:54:45.838Z,99005.59
2023-04-24T02:57:13.575Z,98995.75
2023-04-24T02:59:41.595Z,98999.66
2023-04-24T03:02:09.114Z,99001.78
2023-04-24T03:04:37.530Z,98993.16
2023-04-24T03:07:05.543Z,98993.03
2023-04-24T03:09:33.127Z,98987.00
2023-04-24T03:12:01.392Z,98982.16
2023-04-24T03:14:30.743Z,98979.78
2023-04-24T03:16:58.348Z,98987.53
2023-04-24T03:19:26.037Z,98988.47
2023-04-24T03:21:54.259Z,98992.44
2023-04-24T03:24:21.772Z,98991.62
2023-04-24T03:26:49.618Z,98979.84
2023-04-24T03:29:17.770Z,98982.34
2023-04-24T03:31:45.434Z,98983.03
2023-04-24T03:34:13.270Z,98991.78
2023-04-24T03:36:40.801Z,98979.78
2023-04-24T03:39:08.681Z,98980.78
2023-04-24T03:41:36.488Z,98985.78
2023-04-24T03:44:04.951Z,98978.06
2023-04-24T03:46:32.387Z,98975.94
2023-04-24T03:49:00.344Z,98966.69
2023-04-24T03:51:29.013Z,98968.19
2023-04-24T03:53:56.912Z,98960.53
2023-04-24T03:56:25.107Z,98963.16
2023-04-24T03:58:53.195Z,98963.75
2023-04-24T04:01:21.793Z,98973.72
2023-04-24T04:03:50.126Z,98971.72
2023-04-24T04:06:19.217Z,98981.97
2023-04-24T04:08:47.266Z,98990.91
2023-04-24T04:11:15.203Z,98988.94
2023-04-24T04:13:42.613Z,98976.41
2023-04-24T04:16:10.311Z,98967.69
2023-04-24T04:18:38.664Z,98969.00
2023-04-24T04:21:06.618Z,98978.44
2023-04-24T04:23:34.851Z,98984.75
2023-04-24T04:26:04.301Z,98992.66
2023-04-24T04:28:35.841Z,98985.03
2023-04-24T04:31:03.511Z,98996.63
2023-04-24T04:33:31.991Z,98994.69
2023-04-24T04:35:59.441Z,98981.84
2023-04-24T04:38:30.903Z,98983.59
2023-04-24T04:40:58.612Z,98979.03
2023-04-24T04:43:27.153Z,98977.19
2023-04-24T04:45:57.084Z,98989.41
2023-04-24T04:48:24.990Z,98987.59
2023-04-24T04:50:52.749Z,98972.13
2023-04-24T04:53:21.674Z,98973.13
2023-04-24T04:55:49.100Z,98985.53
2023-04-24T04:58:16.671Z,98975.13
2023-04-24T05:00:45.124Z,98977.69
2023-04-24T05:03:20.118Z,98973.19
2023-04-24T05:05:49.415Z,98967.62
2023-04-24T05:08:26.441Z,98966.47
2023-04-24T05:10:56.391Z,98972.34
2023-04-24T05:15:55.568Z,98967.62
2023-04-24T05:18:23.625Z,98966.59
2023-04-24T05:20:51.116Z,98970.97
2023-04-24T05:23:19.112Z,98972.09
2023-04-24T05:25:47.735Z,98967.38
2023-04-24T05:28:16.357Z,98975.13
2023-04-24T05:30:44.875Z,98978.38
2023-04-24T05:33:13.328Z,98973.31
2023-04-24T05:35:46.562Z,98973.41
2023-04-24T05:38:14.910Z,98979.22
2023-04-24T05:40:42.386Z,98978.94
2023-04-24T05:43:09.831Z,98979.47
2023-04-24T05:45:37.820Z,98974.53
2023-04-24T05:48:05.577Z,98975.03
2023-04-24T05:50:35.434Z,98971.56
2023-04-24T05:53:05.099Z,98971.09
2023-04-24T05:55:34.203Z,98984.69
2023-04-24T05:58:02.346Z,98978.75
2023-04-24T06:00:30.865Z,98986.53
2023-04-24T06:03:00.064Z,98985.81
2023-04-24T06:05:28.448Z,98986.19
2023-04-24T06:07:55.892Z,98982.53
2023-04-24T06:10:24.288Z,98993.59
2023-04-24T06:12:51.748Z,98999.34
2023-04-24T06:15:19.314Z,98987.00
2023-04-24T06:17:47.596Z,98992.88
2023-04-24T06:20:16.446Z,98987.22
2023-04-24T06:22:43.874Z,98979.53
2023-04-24T06:25:11.686Z,98991.62
2023-04-24T06:27:39.481Z,98988.22
2023-04-24T06:30:09.553Z,98985.28
2023-04-24T06:32:37.258Z,98979.81
2023-04-24T06:35:05.272Z,98984.81
2023-04-24T06:37:33.347Z,98985.28
2023-04-24T06:40:01.125Z,98982.28
2023-04-24T06:42:28.649Z,98981.81
2023-04-24T06:44:56.626Z,98987.19
2023-04-24T06:47:24.393Z,98984.53
2023-04-24T06:49:53.435Z,98974.09
2023-04-24T06:52:20.927Z,98977.34
2023-04-24T06:54:48.655Z,98976.59
2023-04-24T06:57:17.251Z,98975.59
2023-04-24T06:59:45.119Z,98969.66
2023-04-24T07:02:12.999Z,98978.56
2023-04-24T07:04:40.937Z,98979.34
2023-04-24T07:07:10.537Z,98980.28
2023-04-24T07:09:39.806Z,98976.88
2023-04-24T07:12:08.439Z,98967.19
2023-04-24T07:14:35.854Z,98979.87
2023-04-24T07:17:04.727Z,98977.25
2023-04-24T07:19:32.121Z,98968.34
2023-04-24T07:21:59.667Z,98974.03
2023-04-24T07:24:30.503Z,98965.91
2023-04-24T07:26:58.100Z,98963.50
2023-04-24T07:29:25.805Z,98967.62
2023-04-24T07:31:55.104Z,98966.63
2023-04-24T07:34:22.611Z,98961.41
2023-04-24T07:36:50.000Z,98963.44
2023-04-24T07:39:19.085Z,98964.41
2023-04-24T07:41:46.451Z,98968.25
2023-04-24T07:44:13.909Z,98969.50
2023-04-24T07:46:41.777Z,98972.91
2023-04-24T07:49:13.762Z,98981.44
2023-04-24T07:51:42.610Z,98974.16
2023-04-24T07:54:10.644Z,98978.97
2023-04-24T07:56:40.279Z,98982.63
2023-04-24T07:59:08.254Z,98969.56
2023-04-24T08:01:35.965Z,98969.44
2023-04-24T08:04:03.800Z,98968.03
2023-04-24T08:06:32.905Z,98974.25
2023-04-24T08:09:01.038Z,98966.41
2023-04-24T08:11:28.826Z,98958.47
2023-04-24T08:13:56.350Z,98962.09
2023-04-24T08:16:25.221Z,98958.81
2023-04-24T08:18:53.943Z,98959.19
2023-04-24T08:21:21.769Z,98963.31
2023-04-24T08:23:49.185Z,98964.63
2023-04-24T08:26:17.753Z,98962.47
2023-04-24T08:28:45.456Z,98958.34
2023-04-24T08:31:12.933Z,98959.66
2023-04-24T08:33:42.059Z,98959.50
2023-04-24T08:36:09.534Z,98959.34
2023-04-24T08:38:36.966Z,98955.31
2023-04-24T08:41:05.977Z,98956.94
2023-04-24T08:43:34.245Z,98957.00
2023-04-24T08:46:02.224Z,98967.56
2023-04-24T08:48:32.364Z,98962.16
2023-04-24T08:51:00.333Z,98964.44
2023-04-24T08:53:27.970Z,98960.97
2023-04-24T08:55:56.944Z,98960.72
2023-04-24T08:58:27.322Z,98957.75
2023-04-24T09:00:59.505Z,98952.88
2023-04-24T09:03:29.126Z,98958.03
2023-04-24T09:05:56.947Z,98947.63
2023-04-24T09:08:26.956Z,98946.53
2023-04-24T09:10:54.689Z,98954.16
2023-04-24T09:13:22.117Z,98957.84
2023-04-24T09:15:49.531Z,98937.53
2023-04-24T09:18:18.477Z,98940.59
2023-04-24T09:21:02.748Z,98938.03
2023-04-24T09:23:31.926Z,98940.00
2023-04-24T09:26:01.310Z,98939.81
2023-04-24T09:28:36.187Z,98943.38
2023-04-24T09:31:07.861Z,98934.09
2023-04-24T09:33:35.640Z,98940.06
2023-04-24T09:36:03.782Z,98930.72
2023-04-24T09:38:40.769Z,98938.09
2023-04-24T09:41:09.304Z,98924.63
2023-04-24T09:43:36.972Z,98921.63
2023-04-24T09:46:08.679Z,98929.41
2023-04-24T09:48:38.280Z,98927.63
2023-04-24T09:51:12.301Z,98922.28
2023-04-24T09:53:43.036Z,98915.75
2023-04-24T09:56:13.455Z,98910.75
2023-04-24T09:58:41.196Z,98914.44
2023-04-24T10:01:08.739Z,98915.97
2023-04-24T10:03:37.588Z,98915.88
2023-04-24T10:06:10.248Z,98919.44
2023-04-24T10:08:38.628Z,98915.22
2023-04-24T10:11:07.262Z,98921.66
2023-04-24T10:13:34.933Z,98920.91
2023-04-24T10:16:03.094Z,98918.81
2023-04-24T10:18:31.412Z,98921.53
2023-04-24T10:21:00.945Z,98919.75
2023-04-24T10:23:29.210Z,98918.72
2023-04-24T10:25:56.905Z,98919.56
2023-04-24T10:28:25.529Z,98912.53
2023-04-24T10:30:55.992Z,98911.22
2023-04-24T10:33:24.079Z,98909.34
2023-04-24T10:35:52.147Z,98908.69
2023-04-24T10:38:25.754Z,98906.38
2023-04-24T10:40:58.798Z,98911.31
2023-04-24T10:43:26.481Z,98907.91
2023-04-24T10:46:04.376Z,98907.75
2023-04-24T10:48:33.461Z,98903.31
2023-04-24T10:51:00.902Z,98903.84
2023-04-24T10:53:29.873Z,98904.06
2023-04-24T10:56:08.676Z,98890.50
2023-04-24T10:58:41.210Z,98896.59
2023-04-24T11:01:09.079Z,98889.03
2023-04-24T11:03:37.650Z,98885.69
2023-04-24T11:06:06.483Z,98891.66
2023-04-24T11:08:41.186Z,98884.47
2023-04-24T11:11:15.740Z,98880.72
2023-04-24T11:13:55.917Z,98879.66
2023-04-24T11:16:35.701Z,98882.22
2023-04-24T11:19:09.618Z,98880.78
2023-04-24T11:21:48.198Z,98872.94
2023-04-24T11:24:32.269Z,98876.22
2023-04-24T11:27:05.375Z,98869.81
2023-04-24T11:29:50.924Z,98866.47
2023-04-24T11:32:28.820Z,98868.50
2023-04-24T11:34:57.928Z,98872.47
2023-04-24T11:37:28.003Z,98863.19
2023-04-24T11:39:58.125Z,98867.50
2023-04-24T11:42:26.619Z,98858.91
2023-04-24T11:47:31.148Z,98858.37
2023-04-24T11:49:59.815Z,98847.78
2023-04-24T11:52:28.285Z,98843.91
2023-04-24T11:54:55.800Z,98843.16
2023-04-24T11:57:27.451Z,98849.06
2023-04-24T11:59:55.026Z,98844.19
2023-04-24T12:02:24.215Z,98840.03
2023-04-24T12:04:53.048Z,98839.81
2023-04-24T12:07:21.060Z,98842.25
2023-04-24T12:09:52.540Z,98836.56
2023-04-24T12:12:20.780Z,98834.41
2023-04-24T12:14:53.928Z,98844.28
2023-04-24T12:17:47.509Z,98839.84
2023-04-24T12:20:15.777Z,98834.00
2023-04-24T12:22:48.065Z,98829.63
2023-04-24T12:25:16.156Z,98830.66
2023-04-24T12:27:45.117Z,98827.69
2023-04-24T12:30:15.136Z,98820.91
2023-04-24T12:32:47.952Z,98817.13
2023-04-24T12:35:21.426Z,98813.81
2023-04-24T12:37:48.916Z,98815.06
2023-04-24T12:40:17.793Z,98811.06
2023-04-24T12:42:46.192Z,98810.88
2023-04-24T12:45:14.496Z,98811.97
2023-04-24T12:47:43.364Z,98809.44
2023-04-24T12:50:12.122Z,98806.25
2023-04-24T12:52:40.124Z,98804.81
2023-04-24T12:55:11.298Z,98801.84
2023-04-24T12:57:40.004Z,98803.28
2023-04-24T13:00:08.994Z,98797.31
2023-04-24T13:02:36.673Z,98792.41
2023-04-24T13:05:04.474Z,98795.16
2023-04-24T13:07:34.320Z,98793.97
2023-04-24T13:10:01.810Z,98789.91
2023-04-24T13:12:29.397Z,98789.50
2023-04-24T13:14:57.206Z,98793.97
2023-04-24T13:17:24.657Z,98796.31
2023-04-24T13:19:52.630Z,98795.00
2023-04-24T13:22:21.177Z,98795.78
2023-04-24T13:24:51.821Z,98790.28
2023-04-24T13:27:19.554Z,98798.88
2023-04-24T13:29:47.595Z,98807.44
2023-04-24T13:32:15.093Z,98813.34
2023-04-24T13:34:42.787Z,98814.75
2023-04-24T13:37:10.752Z,98805.53
2023-04-24T13:39:38.291Z,98808.00
2023-04-24T13:42:06.003Z,98810.72
2023-04-24T13:44:33.805Z,98809.88
2023-04-24T13:47:01.283Z,98817.06
2023-04-24T13:49:28.736Z,98819.41
2023-04-24T13:51:57.065Z,98813.69
2023-04-24T13:54:26.861Z,98815.72
2023-04-24T13:56:54.603Z,98815.19
2023-04-24T13:59:22.722Z,98817.28
2023-04-24T14:01:50.358Z,98820.00
2023-04-24T14:04:18.375Z,98826.53
2023-04-24T14:06:45.944Z,98826.63
2023-04-24T14:09:13.901Z,98828.00
2023-04-24T14:11:41.751Z,98826.38
2023-04-24T14:14:09.298Z,98832.28
2023-04-24T14:16:36.725Z,98830.00
2023-04-24T14:19:05.978Z,98828.94
2023-04-24T14:21:33.964Z,98821.88
2023-04-24T14:24:01.658Z,98826.84
2023-04-24T14:26:29.429Z,98822.63
2023-04-24T14:29:07.185Z,98825.13
2023-04-24T14:31:39.118Z,98824.00
2023-04-24T14:34:06.551Z,98829.13
2023-04-24T14:36:33.913Z,98825.38
2023-04-24T14:39:04.350Z,98817.31
2023-04-24T14:41:32.491Z,98823.75
2023-04-24T14:43:59.875Z,98829.41
2023-04-24T14:46:27.572Z,98830.31
2023-04-24T14:48:55.001Z,98828.81
2023-04-24T14:51:22.480Z,98832.34
2023-04-24T14:53:50.262Z,98830.22
2023-04-24T14:56:17.680Z,98837.75
2023-04-24T14:58:45.167Z,98836.50
2023-04-24T15:01:12.936Z,98833.75
2023-04-24T15:03:40.560Z,98839.78
2023-04-24T15:06:08.216Z,98830.81
2023-04-24T15:08:35.900Z,98830.91
2023-04-24T15:11:03.268Z,98832.44
2023-04-24T15:13:30.742Z,98836.97
2023-04-24T15:15:58.439Z,98836.41
2023-04-24T15:18:25.997Z,98838.06
2023-04-24T15:20:53.668Z,98839.94
2023-04-24T15:23:21.440Z,98834.81
2023-04-24T15:25:49.089Z,98827.91
2023-04-24T15:28:17.223Z,98836.13
2023-04-24T15:30:44.951Z,98834.09
2023-04-24T15:33:12.467Z,98831.44
2023-04-24T15:35:41.130Z,98821.50
2023-04-24T15:38:09.013Z,98823.31
2023-04-24T15:40:38.022Z,98834.69
2023-04-24T15:43:05.588Z,98829.75
2023-04-24T15:45:34.117Z,98833.63
2023-04-24T15:48:01.732Z,98836.88
2023-04-24T15:50:29.366Z,98834.63
2023-04-24T15:52:57.236Z,98838.72
2023-04-24T15:55:35.850Z,98836.50
2023-04-24T15:58:05.362Z,98834.66
2023-04-24T16:00:34.431Z,98837.50
2023-04-24T16:03:08.452Z,98837.72
2023-04-24T16:05:37.428Z,98835.16
2023-04-24T16:08:05.226Z,98837.78
2023-04-24T16:10:33.268Z,98833.94
2023-04-24T16:13:02.632Z,98836.69
2023-04-24T16:15:30.736Z,98837.06
2023-04-24T16:17:58.590Z,98834.50
2023-04-24T16:20:26.102Z,98833.63
2023-04-24T16:22:53.812Z,98825.41
2023-04-24T16:25:21.350Z,98830.56
2023-04-24T16:27:50.941Z,98831.00
2023-04-24T16:30:19.488Z,98829.25
2023-04-24T16:32:47.063Z,98827.63
2023-04-24T16:35:14.597Z,98829.56
2023-04-24T16:37:42.476Z,98837.03
2023-04-24T16:40:11.117Z,98830.78
2023-04-24T16:42:39.632Z,98835.91
2023-04-24T16:45:08.099Z,98834.63
2023-04-24T16:47:36.178Z,98841.81
2023-04-24T16:50:04.281Z,98840.13
2023-04-24T16:52:32.031Z,98837.09
2023-04-24T16:55:00.008Z,98839.28
2023-04-24T16:57:27.550Z,98844.69
2023-04-24T16:59:55.402Z,98846.34
2023-04-24T17:02:22.868Z,98849.66
2023-04-24T17:04:50.418Z,98843.25
2023-04-24T17:07:18.142Z,98845.56
2023-04-24T17:09:45.695Z,98843.72
2023-04-24T17:12:13.080Z,98850.28
2023-04-24T17:14:40.834Z,98853.25
2023-04-24T17:17:08.253Z,98847.22
2023-04-24T17:19:35.820Z,98849.63
2023-04-24T17:22:06.317Z,98853.91
2023-04-24T17:24:33.972Z,98851.75
2023-04-24T17:27:07.985Z,98844.97
2023-04-24T17:29:42.345Z,98849.22
2023-04-24T17:32:09.941Z,98852.22
2023-04-24T17:34:37.472Z,98855.19
2023-04-24T17:37:05.155Z,98857.03
2023-04-24T17:39:32.693Z,98862.41
2023-04-24T17:42:01.118Z,98862.16
2023-04-24T17:44:28.830Z,98873.03
2023-04-24T17:46:56.414Z,98873.53
2023-04-24T17:49:23.962Z,98874.59
2023-04-24T17:51:51.711Z,98869.16
2023-04-24T17:54:19.142Z,98881.63
2023-04-24T17:56:46.587Z,98877.00
2023-04-24T17:59:14.402Z,98878.19
2023-04-24T18:01:42.618Z,98884.47
2023-04-24T18:04:11.255Z,98881.84
2023-04-24T18:06:39.784Z,98879.31
2023-04-24T18:09:08.332Z,98886.59
2023-04-24T18:11:36.046Z,98884.66
2023-04-24T18:14:03.493Z,98884.47
2023-04-24T18:16:30.920Z,98886.56
2023-04-24T18:18:58.669Z,98885.91
2023-04-24T18:21:26.491Z,98889.72
2023-04-24T18:23:55.219Z,98891.06
2023-04-24T18:26:22.938Z,98890.69
2023-04-24T18:28:50.707Z,98889.41
2023-04-24T18:31:18.319Z,98896.09
2023-04-24T18:33:46.013Z,98901.06
2023-04-24T18:36:13.484Z,98905.84
2023-04-24T18:38:40.989Z,98910.22
2023-04-24T18:41:08.784Z,98914.66
2023-04-24T18:43:36.341Z,98916.28
2023-04-24T18:46:03.878Z,98919.13
2023-04-24T18:48:31.656Z,98918.94
2023-04-24T18:51:00.069Z,98923.69
2023-04-24T18:53:27.779Z,98921.59
2023-04-24T18:55:55.956Z,98912.03
2023-04-24T18:58:23.377Z,98920.06
2023-04-24T19:00:51.044Z,98920.81
2023-04-24T19:03:19.318Z,98920.50
2023-04-24T19:05:47.119Z,98922.66
2023-04-24T19:08:14.892Z,98922.66
2023-04-24T19:10:42.910Z,98928.09
2023-04-24T19:13:10.679Z,98935.38
2023-04-24T19:15:38.167Z,98942.66
2023-04-24T19:18:06.096Z,98944.63
2023-04-24T19:20:33.634Z,98945.78
2023-04-24T19:23:01.033Z,98938.09
2023-04-24T19:25:28.839Z,98934.50
2023-04-24T19:27:57.617Z,98933.19
2023-04-24T19:30:25.208Z,98923.12
2023-04-24T19:32:52.962Z,98928.44
2023-04-24T19:35:20.751Z,98933.19
2023-04-24T19:37:48.154Z,98930.62
2023-04-24T19:40:15.996Z,98930.62
2023-04-24T19:42:44.591Z,98936.44
2023-04-24T19:45:13.009Z,98927.28
2023-04-24T19:47:40.887Z,98934.53
2023-04-24T19:50:09.188Z,98926.13
2023-04-24T19:52:36.823Z,98923.81
2023-04-24T19:55:04.880Z,98935.47
2023-04-24T19:57:32.342Z,98931.06
2023-04-24T20:00:00.029Z,98922.84
2023-04-24T20:02:28.049Z,98918.31
2023-04-24T20:04:56.165Z,98922.72
2023-04-24T20:07:23.673Z,98922.00
2023-04-24T20:09:51.192Z,98914.75
2023-04-24T20:12:19.484Z,98926.09
2023-04-24T20:14:47.928Z,98919.63
2023-04-24T20:17:16.183Z,98915.19
2023-04-24T20:19:44.181Z,98906.31
2023-04-24T20:22:13.283Z,98909.75
2023-04-24T20:24:41.117Z,98912.72
2023-04-24T20:27:08.937Z,98915.53
2023-04-24T20:29:36.447Z,98914.09
2023-04-24T20:32:03.982Z,98917.25
2023-04-24T20:34:31.699Z,98913.78
2023-04-24T20:36:59.277Z,98915.69
2023-04-24T20:39:26.726Z,98918.59
2023-04-24T20:41:54.466Z,98912.84
2023-04-24T20:44:22.296Z,98915.19
2023-04-24T20:46:49.748Z,98914.97
2023-04-24T20:49:17.476Z,98915.62
2023-04-24T20:51:44.871Z,98915.97
2023-04-24T20:54:12.330Z,98914.16
2023-04-24T20:56:40.211Z,98921.19
2023-04-24T20:59:07.606Z,98920.69
2023-04-24T21:01:35.049Z,98914.03
2023-04-24T21:04:03.427Z,98909.81
2023-04-24T21:06:32.026Z,98917.53
2023-04-24T21:08:59.489Z,98920.59
2023-04-24T21:11:27.381Z,98914.81
2023-04-24T21:13:54.796Z,98914.81
2023-04-24T21:16:22.342Z,98911.94
2023-04-24T21:18:50.059Z,98914.47
2023-04-24T21:21:17.470Z,98913.66
2023-04-24T21:23:44.851Z,98905.09
2023-04-24T21:26:12.607Z,98909.56
2023-04-24T21:28:40.558Z,98913.16
2023-04-24T21:31:08.235Z,98919.69
2023-04-24T21:33:35.950Z,98923.91
2023-04-24T21:36:03.437Z,98923.72
2023-04-24T21:38:31.021Z,98922.62
2023-04-24T21:40:58.764Z,98913.78
2023-04-24T21:43:37.223Z,98920.72
2023-04-24T21:46:09.480Z,98919.25
2023-04-24T21:48:36.927Z,98924.00
2023-04-24T21:51:04.361Z,98919.37
2023-04-24T21:53:32.034Z,98910.53
2023-04-24T21:55:59.695Z,98909.88
2023-04-24T21:58:27.100Z,98905.59
2023-04-24T22:00:54.840Z,98904.63
2023-04-24T22:03:22.727Z,98901.88
2023-04-24T22:05:50.354Z,98894.56
2023-04-24T22:08:17.824Z,98896.19
2023-04-24T22:10:46.020Z,98901.19
2023-04-24T22:13:13.541Z,98891.25
2023-04-24T22:15:41.087Z,98881.97
2023-04-24T22:18:09.327Z,98880.75
2023-04-24T22:20:37.573Z,98871.03
2023-04-24T22:23:04.984Z,98868.03
2023-04-24T22:25:32.834Z,98866.75
2023-04-24T22:28:00.234Z,98864.19
2023-04-24T22:30:27.678Z,98863.91
2023-04-24T22:32:55.408Z,98865.19
2023-04-24T22:35:23.025Z,98865.00
2023-04-24T22:37:56.591Z,98869.44
2023-04-24T22:40:25.222Z,98864.06
2023-04-24T22:42:52.962Z,98879.91
2023-04-24T22:45:23.576Z,98886.19
2023-04-24T22:47:51.600Z,98885.50
2023-04-24T22:50:20.282Z,98883.31
2023-04-24T22:52:47.765Z,98886.81
2023-04-24T22:55:15.508Z,98875.41
2023-04-24T22:57:42.969Z,98880.56
2023-04-24T23:00:12.717Z,98888.59
2023-04-24T23:02:41.249Z,98880.56
2023-04-24T23:05:10.093Z,98877.50
2023-04-24T23:10:06.938Z,98873.91
2023-04-24T23:12:34.394Z,98881.09
2023-04-24T23:15:01.872Z,98881.53
2023-04-24T23:17:29.612Z,98872.78
2023-04-24T23:19:57.097Z,98875.38
2023-04-24T23:22:24.781Z,98874.66
2023-04-24T23:24:52.436Z,98877.53
2023-04-24T23:27:20.020Z,98883.97
2023-04-24T23:29:47.505Z,98876.78
2023-04-24T23:32:15.302Z,98882.34
2023-04-24T23:34:42.711Z,98869.75
2023-04-24T23:37:10.179Z,98882.19
2023-04-24T23:39:37.932Z,98866.97
2023-04-24T23:42:05.413Z,98869.31
2023-04-24T23:44:32.862Z,98868.28
2023-04-24T23:47:00.525Z,98864.81
2023-04-24T23:49:27.938Z,98874.84
2023-04-24T23:51:56.240Z,98861.47
2023-04-24T23:54:24.069Z,98856.59
2023-04-24T23:56:51.453Z,98858.00
2023-04-24T23:59:21.497Z,98865.59
